createdAt,value
2018-01-08T00:00:18.470Z,28.57
2018-01-08T00:02:46.815Z,26.17
2018-01-08T00:05:14.441Z,29.10
2018-01-08T00:07:42.002Z,18.80
2018-01-08T00:10:09.560Z,16.50
2018-01-08T00:12:37.122Z,17.73
2018-01-08T00:15:04.680Z,31.13
2018-01-08T00:17:32.200Z,31.00
2018-01-08T00:19:59.770Z,23.23
2018-01-08T00:22:28.163Z,28.40
2018-01-08T00:24:55.688Z,26.73
2018-01-08T00:27:23.198Z,19.63
2018-01-08T00:29:50.749Z,20.30
2018-01-08T00:32:18.282Z,20.03
2018-01-08T00:34:46.596Z,30.97
2018-01-08T00:37:14.112Z,24.10
2018-01-08T00:39:42.514Z,32.50
2018-01-08T00:42:10.057Z,23.47
2018-01-08T00:44:38.370Z,16.67
2018-01-08T00:47:05.925Z,28.57
2018-01-08T00:49:33.445Z,18.50
2018-01-08T00:52:01.742Z,27.87
2018-01-08T00:54:29.335Z,33.83
2018-01-08T00:56:56.882Z,31.00
2018-01-08T00:59:24.413Z,20.20
2018-01-08T01:01:52.729Z,29.90
2018-01-08T01:04:20.301Z,28.87
2018-01-08T01:06:47.911Z,28.80
2018-01-08T01:09:15.445Z,19.37
2018-01-08T01:11:42.955Z,21.53
2018-01-08T01:14:10.481Z,30.60
2018-01-08T01:16:38.846Z,30.70
2018-01-08T01:19:07.147Z,17.83
2018-01-08T01:21:34.705Z,23.93
2018-01-08T01:24:02.999Z,23.07
2018-01-08T01:26:30.510Z,24.10
2018-01-08T01:28:58.034Z,28.83
2018-01-08T01:31:25.604Z,25.00
2018-01-08T01:33:53.136Z,24.83
2018-01-08T01:36:20.675Z,27.77
2018-01-08T01:38:48.204Z,24.20
2018-01-08T01:41:15.732Z,22.77
2018-01-08T01:43:43.248Z,26.23
2018-01-08T01:46:11.517Z,23.67
2018-01-08T01:48:39.815Z,22.20
2018-01-08T01:51:07.353Z,23.77
2018-01-08T01:53:35.688Z,17.03
2018-01-08T01:56:03.258Z,20.87
2018-01-08T01:58:30.793Z,18.83
2018-01-08T02:00:58.322Z,23.17
2018-01-08T02:03:25.829Z,21.50
2018-01-08T02:05:53.358Z,19.73
2018-01-08T02:08:20.893Z,21.17
2018-01-08T02:10:48.425Z,20.77
2018-01-08T02:13:16.035Z,22.60
2018-01-08T02:15:43.744Z,21.57
2018-01-08T02:18:11.296Z,20.93
2018-01-08T02:20:38.816Z,25.87
2018-01-08T02:23:06.338Z,25.13
2018-01-08T02:25:34.655Z,23.07
2018-01-08T02:28:02.190Z,22.13
2018-01-08T02:30:30.572Z,21.60
2018-01-08T02:32:58.158Z,16.90
2018-01-08T02:35:25.668Z,26.77
2018-01-08T02:37:54.018Z,23.70
2018-01-08T02:40:21.516Z,17.30
2018-01-08T02:42:49.822Z,24.40
2018-01-08T02:45:17.348Z,22.53
2018-01-08T02:47:45.653Z,24.10
2018-01-08T02:50:13.152Z,29.10
2018-01-08T02:52:40.694Z,25.03
2018-01-08T02:55:08.235Z,21.87
2018-01-08T02:57:35.799Z,20.27
2018-01-08T03:00:03.298Z,23.83
2018-01-08T03:02:30.875Z,20.50
2018-01-08T03:04:58.425Z,31.13
2018-01-08T03:07:25.933Z,23.53
2018-01-08T03:09:53.528Z,21.90
2018-01-08T03:12:21.033Z,35.17
2018-01-08T03:14:49.335Z,19.23
2018-01-08T03:17:16.910Z,22.80
2018-01-08T03:19:44.426Z,21.27
2018-01-08T03:22:11.949Z,21.73
2018-01-08T03:24:39.474Z,19.80
2018-01-08T03:27:07.027Z,21.80
2018-01-08T03:29:34.582Z,19.60
2018-01-08T03:32:02.126Z,20.27
2018-01-08T03:34:30.424Z,22.20
2018-01-08T03:36:57.953Z,19.30
2018-01-08T03:39:26.241Z,20.60
2018-01-08T03:41:53.789Z,18.57
2018-01-08T03:44:22.102Z,18.63
2018-01-08T03:46:49.642Z,18.10
2018-01-08T03:49:17.905Z,16.77
2018-01-08T03:51:46.204Z,16.53
2018-01-08T03:54:13.765Z,18.30
2018-01-08T03:56:41.302Z,17.77
2018-01-08T03:59:09.612Z,17.87
2018-01-08T04:01:37.150Z,17.47
2018-01-08T04:04:04.677Z,17.83
2018-01-08T04:06:32.991Z,16.53
2018-01-08T04:09:00.549Z,20.17
2018-01-08T04:11:28.113Z,23.77
2018-01-08T04:13:55.666Z,18.53
2018-01-08T04:16:23.231Z,22.03
2018-01-08T04:18:50.773Z,25.37
2018-01-08T04:21:19.106Z,19.50
2018-01-08T04:23:46.623Z,20.40
2018-01-08T04:26:14.162Z,19.00
2018-01-08T04:28:42.515Z,21.63
2018-01-08T04:31:10.182Z,22.50
2018-01-08T04:33:37.787Z,25.10
2018-01-08T04:36:05.371Z,22.93
2018-01-08T04:38:32.914Z,17.80
2018-01-08T04:41:00.496Z,18.17
2018-01-08T04:43:28.121Z,15.53
2018-01-08T04:45:55.671Z,19.13
2018-01-08T04:48:23.194Z,20.53
2018-01-08T04:50:50.708Z,16.07
2018-01-08T04:53:18.302Z,17.70
2018-01-08T04:55:45.858Z,17.90
2018-01-08T04:58:13.409Z,15.53
2018-01-08T05:00:41.005Z,15.63
2018-01-08T05:03:08.539Z,20.27
2018-01-08T05:05:36.120Z,16.73
2018-01-08T05:08:03.658Z,18.73
2018-01-08T05:10:31.207Z,18.10
2018-01-08T05:12:58.806Z,17.50
2018-01-08T05:15:26.368Z,13.07
2018-01-08T05:17:53.940Z,13.50
2018-01-08T05:20:22.241Z,13.57
2018-01-08T05:22:49.793Z,17.13
2018-01-08T05:25:17.415Z,16.60
2018-01-08T05:27:45.001Z,16.83
2018-01-08T05:30:13.288Z,15.90
2018-01-08T05:32:40.871Z,19.43
2018-01-08T05:35:08.357Z,17.77
2018-01-08T05:37:36.226Z,16.77
2018-01-08T05:40:04.761Z,19.40
2018-01-08T05:42:32.331Z,21.00
2018-01-08T05:44:59.825Z,18.40
2018-01-08T05:47:27.321Z,16.93
2018-01-08T05:49:55.585Z,18.37
2018-01-08T05:52:23.142Z,20.57
2018-01-08T05:54:50.682Z,18.40
2018-01-08T05:57:18.196Z,17.73
2018-01-08T05:59:45.712Z,20.20
2018-01-08T06:02:14.100Z,19.73
2018-01-08T06:04:41.574Z,21.33
2018-01-08T06:07:10.030Z,19.90
2018-01-08T06:09:37.622Z,18.53
2018-01-08T06:12:05.925Z,29.00
2018-01-08T06:14:33.466Z,25.20
2018-01-08T06:17:00.999Z,22.07
2018-01-08T06:19:28.513Z,22.53
2018-01-08T06:21:56.061Z,20.40
2018-01-08T06:24:23.616Z,25.10
2018-01-08T06:26:51.179Z,20.80
2018-01-08T06:29:18.717Z,25.13
2018-01-08T06:31:53.187Z,23.33
2018-01-08T06:34:21.511Z,22.43
2018-01-08T06:36:49.076Z,20.87
2018-01-08T06:39:16.592Z,26.87
2018-01-08T06:41:44.180Z,19.53
2018-01-08T06:44:12.774Z,29.53
2018-01-08T06:46:40.320Z,23.70
2018-01-08T06:49:11.626Z,16.90
2018-01-08T06:51:39.138Z,24.10
2018-01-08T06:54:07.439Z,23.27
2018-01-08T06:56:34.983Z,23.67
2018-01-08T06:59:02.762Z,22.63
2018-01-08T07:01:30.285Z,23.97
2018-01-08T07:03:58.620Z,22.17
2018-01-08T07:06:26.292Z,21.97
2018-01-08T07:08:53.905Z,18.17
2018-01-08T07:11:22.403Z,25.67
2018-01-08T07:13:50.724Z,25.63
2018-01-08T07:16:18.284Z,20.80
2018-01-08T07:18:47.320Z,24.50
2018-01-08T07:21:14.842Z,23.00
2018-01-08T07:23:42.376Z,20.50
2018-01-08T07:26:09.903Z,18.80
2018-01-08T07:28:37.421Z,19.63
2018-01-08T07:31:04.968Z,18.30
2018-01-08T07:33:32.505Z,19.03
2018-01-08T07:36:00.011Z,21.40
2018-01-08T07:38:27.521Z,20.67
2018-01-08T07:40:55.040Z,22.27
2018-01-08T07:43:23.339Z,15.67
2018-01-08T07:45:50.850Z,23.17
2018-01-08T07:48:18.368Z,21.63
2018-01-08T07:50:45.918Z,19.90
2018-01-08T07:53:13.412Z,20.20
2018-01-08T07:55:40.905Z,23.40
2018-01-08T07:58:09.156Z,21.63
2018-01-08T08:00:37.440Z,21.27
2018-01-08T08:03:04.929Z,21.80
2018-01-08T08:05:32.433Z,17.33
2018-01-08T08:07:59.954Z,26.03
2018-01-08T08:10:27.460Z,23.50
2018-01-08T08:12:54.974Z,23.23
2018-01-08T08:15:22.464Z,25.30
2018-01-08T08:17:49.940Z,29.10
2018-01-08T08:20:17.437Z,17.93
2018-01-08T08:22:44.917Z,22.87
2018-01-08T08:25:12.399Z,26.90
2018-01-08T08:27:39.896Z,17.57
2018-01-08T08:30:08.154Z,24.73
2018-01-08T08:32:35.679Z,24.43
2018-01-08T08:35:03.192Z,25.40
2018-01-08T08:37:31.438Z,22.10
2018-01-08T08:39:58.912Z,21.97
2018-01-08T08:42:27.181Z,17.80
2018-01-08T08:44:54.688Z,24.63
2018-01-08T08:47:22.158Z,20.67
2018-01-08T08:49:49.645Z,19.47
2018-01-08T08:52:17.121Z,27.80
2018-01-08T08:54:45.387Z,24.80
2018-01-08T08:57:12.902Z,19.27
2018-01-08T08:59:40.398Z,23.43
2018-01-08T09:02:07.899Z,22.27
2018-01-08T09:04:35.399Z,23.27
2018-01-08T09:07:02.910Z,22.13
2018-01-08T09:09:30.404Z,18.80
2018-01-08T09:11:57.873Z,18.60
2018-01-08T09:14:25.352Z,20.37
2018-01-08T09:16:52.801Z,21.23
2018-01-08T09:19:20.283Z,23.47
2018-01-08T09:21:48.521Z,24.10
2018-01-08T09:24:15.980Z,22.07
2018-01-08T09:26:43.453Z,27.30
2018-01-08T09:29:10.913Z,21.83
2018-01-08T09:31:38.388Z,18.70
2018-01-08T09:34:06.630Z,28.67
2018-01-08T09:36:34.110Z,28.80
2018-01-08T09:39:01.563Z,29.87
2018-01-08T09:41:29.047Z,30.90
2018-01-08T09:43:57.274Z,26.40
2018-01-08T09:46:24.753Z,27.97
2018-01-08T09:48:52.341Z,26.77
2018-01-08T09:51:20.606Z,30.20
2018-01-08T09:53:48.860Z,25.70
2018-01-08T09:56:16.382Z,29.97
2018-01-08T09:58:43.924Z,29.63
2018-01-08T10:01:11.474Z,51.03
2018-01-08T10:03:51.634Z,24.63
2018-01-08T10:06:31.274Z,30.50
2018-01-08T10:09:10.643Z,74.80
2018-01-08T10:11:49.958Z,30.93
2018-01-08T10:14:29.274Z,25.83
2018-01-08T10:17:08.762Z,34.77
2018-01-08T10:19:42.694Z,34.37
2018-01-08T10:22:10.233Z,27.03
2018-01-08T10:24:37.775Z,31.13
2018-01-08T10:27:05.296Z,28.53
2018-01-08T10:29:33.600Z,28.20
2018-01-08T10:32:01.127Z,32.03
2018-01-08T10:34:29.435Z,37.10
2018-01-08T10:36:57.006Z,30.13
2018-01-08T10:39:24.515Z,30.53
2018-01-08T10:41:58.628Z,33.13
2018-01-08T10:44:31.770Z,28.00
2018-01-08T10:47:05.083Z,27.33
2018-01-08T10:49:39.038Z,29.87
2018-01-08T10:52:06.103Z,31.43
2018-01-08T10:54:48.502Z,32.00
2018-01-08T10:57:16.060Z,44.00
2018-01-08T10:59:43.614Z,36.67
2018-01-08T11:02:17.564Z,39.00
2018-01-08T11:04:45.117Z,32.13
2018-01-08T11:07:12.651Z,37.23
2018-01-08T11:09:40.174Z,35.60
2018-01-08T11:12:07.686Z,35.17
2018-01-08T11:14:35.219Z,36.47
2018-01-08T11:17:02.794Z,35.80
2018-01-08T11:19:30.309Z,35.57
2018-01-08T11:21:58.625Z,31.57
2018-01-08T11:24:26.182Z,40.60
2018-01-08T11:26:53.761Z,32.20
2018-01-08T11:29:21.323Z,43.60
2018-01-08T11:31:48.869Z,29.57
2018-01-08T11:34:17.161Z,45.17
2018-01-08T11:36:44.708Z,36.80
2018-01-08T11:39:12.994Z,35.53
2018-01-08T11:41:40.566Z,33.57
2018-01-08T11:44:08.123Z,33.33
2018-01-08T11:46:35.665Z,33.97
2018-01-08T11:49:03.958Z,35.10
2018-01-08T11:51:31.489Z,34.53
2018-01-08T11:53:59.793Z,29.80
2018-01-08T11:56:27.357Z,31.67
2018-01-08T11:58:54.902Z,50.43
2018-01-08T12:01:22.443Z,64.17
2018-01-08T12:03:50.768Z,53.10
2018-01-08T12:06:18.264Z,42.13
2018-01-08T12:08:46.996Z,39.10
2018-01-08T12:11:14.744Z,36.90
2018-01-08T12:13:43.115Z,30.40
2018-01-08T12:16:11.411Z,34.17
2018-01-08T12:18:38.942Z,28.17
2018-01-08T12:21:07.770Z,23.67
2018-01-08T12:26:10.467Z,23.47
2018-01-08T12:28:55.042Z,34.73
2018-01-08T12:31:23.321Z,31.57
2018-01-08T12:33:52.791Z,29.90
2018-01-08T12:36:20.370Z,32.00
2018-01-08T12:38:48.129Z,35.23
2018-01-08T12:41:17.817Z,33.27
2018-01-08T12:43:46.233Z,34.43
2018-01-08T12:46:13.837Z,36.00
2018-01-08T12:48:42.168Z,35.97
2018-01-08T12:51:09.678Z,29.53
2018-01-08T12:53:37.225Z,36.00
2018-01-08T12:56:04.914Z,33.20
2018-01-08T12:58:33.229Z,34.07
2018-01-08T13:01:00.769Z,35.00
2018-01-08T13:03:28.325Z,35.90
2018-01-08T13:05:55.877Z,37.70
2018-01-08T13:08:23.408Z,35.83
2018-01-08T13:10:50.930Z,34.50
2018-01-08T13:13:18.500Z,38.23
2018-01-08T13:15:45.986Z,35.83
2018-01-08T13:18:13.550Z,34.50
2018-01-08T13:20:41.832Z,29.07
2018-01-08T13:23:10.142Z,34.83
2018-01-08T13:25:37.813Z,35.13
2018-01-08T13:28:05.361Z,33.43
2018-01-08T13:30:33.683Z,38.50
2018-01-08T13:33:01.271Z,31.37
2018-01-08T13:35:28.742Z,33.47
2018-01-08T13:37:57.166Z,39.30
2018-01-08T13:40:24.745Z,34.73
2018-01-08T13:42:52.281Z,33.27
2018-01-08T13:45:20.637Z,37.47
2018-01-08T13:47:48.259Z,39.30
2018-01-08T13:50:15.826Z,35.90
2018-01-08T13:52:44.113Z,44.47
2018-01-08T13:55:13.132Z,38.80
2018-01-08T13:57:40.693Z,34.33
2018-01-08T14:00:08.246Z,41.07
2018-01-08T14:02:35.781Z,35.70
2018-01-08T14:05:04.102Z,40.63
2018-01-08T14:07:31.606Z,35.00
2018-01-08T14:10:00.437Z,35.67
2018-01-08T14:12:27.984Z,41.57
2018-01-08T14:14:55.499Z,37.03
2018-01-08T14:17:23.052Z,37.60
2018-01-08T14:19:50.625Z,42.40
2018-01-08T14:22:18.767Z,35.50
2018-01-08T14:27:23.569Z,34.80
2018-01-08T14:29:51.269Z,35.50
2018-01-08T14:32:18.854Z,34.83
2018-01-08T14:34:49.056Z,30.40
2018-01-08T14:37:16.584Z,31.87
2018-01-08T14:39:44.143Z,35.93
2018-01-08T14:42:11.656Z,32.40
2018-01-08T14:44:39.215Z,32.53
2018-01-08T14:47:06.805Z,30.20
2018-01-08T14:49:38.301Z,29.50
2018-01-08T14:52:06.090Z,30.40
2018-01-08T14:54:33.669Z,32.43
2018-01-08T14:57:02.266Z,31.27
2018-01-08T14:59:36.455Z,29.23
2018-01-08T15:02:05.116Z,34.30
2018-01-08T15:37:50.228Z,44.27
2018-01-08T15:40:22.545Z,40.10
2018-01-08T15:42:53.298Z,35.27
2018-01-08T15:45:24.241Z,38.30
2018-01-08T15:47:54.319Z,33.70
2018-01-08T15:50:27.945Z,39.23
2018-01-08T15:53:11.055Z,37.13
2018-01-08T15:55:40.553Z,42.77
2018-01-08T15:58:09.506Z,46.00
2018-01-08T16:00:40.147Z,49.83
2018-01-08T16:05:49.532Z,47.63
2018-01-08T16:08:18.171Z,38.40
2018-01-08T16:10:46.850Z,38.27
2018-01-08T16:13:15.347Z,47.87
2018-01-08T16:15:44.172Z,37.57
2018-01-08T16:18:12.566Z,41.60
2018-01-08T16:20:40.877Z,36.43
2018-01-08T16:23:09.158Z,43.50
2018-01-08T16:25:37.967Z,38.50
2018-01-08T16:28:06.523Z,43.93
2018-01-08T16:30:35.852Z,46.70
2018-01-08T16:33:05.286Z,48.77
2018-01-08T16:35:33.888Z,50.10
2018-01-08T16:38:05.813Z,45.40
2018-01-08T16:40:36.095Z,40.40
2018-01-08T16:43:05.602Z,42.73
2018-01-08T16:45:36.200Z,44.83
2018-01-08T16:48:05.580Z,45.20
2018-01-08T16:50:33.979Z,43.23
2018-01-08T16:53:02.023Z,40.97
2018-01-08T16:55:30.364Z,37.67
2018-01-08T16:58:04.548Z,47.07
2018-01-08T17:00:33.298Z,41.87
2018-01-08T17:03:02.737Z,39.93
2018-01-08T17:05:31.548Z,43.70
2018-01-08T17:08:00.225Z,41.13
2018-01-08T17:10:28.693Z,42.80
2018-01-08T17:12:56.960Z,42.00
2018-01-08T17:15:24.548Z,39.33
2018-01-08T17:17:52.091Z,46.60
2018-01-08T17:20:20.341Z,36.03
2018-01-08T17:22:47.840Z,36.27
2018-01-08T17:25:15.397Z,35.83
2018-01-08T17:27:42.895Z,36.73
2018-01-08T17:30:10.460Z,36.47
2018-01-08T17:32:37.953Z,37.37
2018-01-08T17:35:05.472Z,41.50
2018-01-08T17:37:32.981Z,49.97
2018-01-08T17:40:00.484Z,35.90
2018-01-08T17:42:28.027Z,38.53
2018-01-08T17:44:55.563Z,34.87
2018-01-08T17:47:23.070Z,41.80
2018-01-08T17:49:50.572Z,39.10
2018-01-08T17:52:18.044Z,37.63
2018-01-08T17:54:45.561Z,39.20
2018-01-08T17:57:13.048Z,40.13
2018-01-08T17:59:40.550Z,36.37
2018-01-08T18:02:08.066Z,38.40
2018-01-08T18:04:35.670Z,34.13
2018-01-08T18:07:03.273Z,35.20
2018-01-08T18:09:30.807Z,36.60
2018-01-08T18:11:58.285Z,31.83
2018-01-08T18:14:25.877Z,33.80
2018-01-08T18:16:53.364Z,35.37
2018-01-08T18:19:20.906Z,33.73
2018-01-08T18:21:48.435Z,35.80
2018-01-08T18:24:15.917Z,43.50
2018-01-08T18:26:43.424Z,38.67
2018-01-08T18:29:11.137Z,38.90
2018-01-08T18:31:38.621Z,33.07
2018-01-08T18:34:06.104Z,36.50
2018-01-08T18:36:33.861Z,36.50
2018-01-08T18:39:01.462Z,40.37
2018-01-08T18:41:29.045Z,38.17
2018-01-08T18:43:56.861Z,34.93
2018-01-08T18:46:24.482Z,36.63
2018-01-08T18:48:52.125Z,34.20
2018-01-08T18:51:19.679Z,33.57
2018-01-08T18:53:47.236Z,33.17
2018-01-08T18:56:14.825Z,35.03
2018-01-08T18:58:42.494Z,31.97
2018-01-08T19:01:10.136Z,29.57
2018-01-08T19:03:38.061Z,33.80
2018-01-08T19:06:05.810Z,35.30
2018-01-08T19:08:34.547Z,33.50
2018-01-08T19:11:02.172Z,33.17
2018-01-08T19:13:29.935Z,37.17
2018-01-08T19:15:57.575Z,33.80
2018-01-08T19:18:25.237Z,37.80
2018-01-08T19:20:52.795Z,33.37
2018-01-08T19:23:20.409Z,34.37
2018-01-08T19:25:48.056Z,31.67
2018-01-08T19:28:16.401Z,34.33
2018-01-08T19:30:44.293Z,30.40
2018-01-08T19:33:11.917Z,32.50
2018-01-08T19:35:39.483Z,33.90
2018-01-08T19:38:07.052Z,35.43
2018-01-08T19:40:34.576Z,32.23
2018-01-08T19:43:02.148Z,33.83
2018-01-08T19:45:29.693Z,30.00
2018-01-08T19:47:57.409Z,31.47
2018-01-08T19:50:25.773Z,28.77
2018-01-08T19:52:54.150Z,34.20
2018-01-08T19:55:22.581Z,34.10
2018-01-08T19:57:50.211Z,39.20
2018-01-08T20:00:17.737Z,35.50
2018-01-08T20:02:45.236Z,41.30
2018-01-08T20:05:12.949Z,48.87
2018-01-08T20:07:40.500Z,41.97
2018-01-08T20:10:08.080Z,39.93
2018-01-08T20:12:35.683Z,37.80
2018-01-08T20:15:03.304Z,45.77
2018-01-08T20:17:30.900Z,42.50
2018-01-08T20:19:58.497Z,38.13
2018-01-08T20:22:29.233Z,40.53
2018-01-08T20:25:06.731Z,44.20
2018-01-08T20:27:34.344Z,39.30
2018-01-08T20:30:01.938Z,43.00
2018-01-08T20:32:29.538Z,41.03
2018-01-08T20:34:57.134Z,44.77
2018-01-08T20:37:24.804Z,42.10
2018-01-08T20:39:53.206Z,36.83
2018-01-08T20:42:20.818Z,45.20
2018-01-08T20:44:48.399Z,40.00
2018-01-08T20:47:16.012Z,41.63
2018-01-08T20:49:43.593Z,48.10
2018-01-08T20:52:11.177Z,41.77
2018-01-08T20:54:38.752Z,42.13
2018-01-08T20:57:06.336Z,42.37
2018-01-08T20:59:33.913Z,40.17
2018-01-08T21:02:01.502Z,47.00
2018-01-08T21:04:29.089Z,53.80
2018-01-08T21:06:57.435Z,47.50
2018-01-08T21:09:25.046Z,41.23
2018-01-08T21:11:53.456Z,40.93
2018-01-08T21:14:21.074Z,43.73
2018-01-08T21:16:49.524Z,49.30
2018-01-08T21:19:17.141Z,42.30
2018-01-08T21:21:44.913Z,43.10
2018-01-08T21:24:12.494Z,36.20
2018-01-08T21:26:40.142Z,42.77
2018-01-08T21:29:07.728Z,38.77
2018-01-08T21:31:35.258Z,42.50
2018-01-08T21:34:02.866Z,36.67
2018-01-08T21:36:30.453Z,45.43
2018-01-08T21:38:58.796Z,43.60
2018-01-08T21:41:26.393Z,40.47
2018-01-08T21:43:54.749Z,41.60
2018-01-08T21:46:25.471Z,44.03
2018-01-08T21:48:53.042Z,44.77
2018-01-08T21:51:20.632Z,45.83
2018-01-08T21:53:48.222Z,43.40
2018-01-08T21:56:15.822Z,48.50
2018-01-08T21:58:43.412Z,47.87
2018-01-08T22:01:11.018Z,48.83
2018-01-08T22:03:38.565Z,42.63
2018-01-08T22:06:06.170Z,44.90
2018-01-08T22:08:34.489Z,49.43
2018-01-08T22:11:02.075Z,41.80
2018-01-08T22:13:29.676Z,38.10
2018-01-08T22:15:58.046Z,47.27
2018-01-08T22:18:25.650Z,46.73
2018-01-08T22:20:53.194Z,39.53
2018-01-08T22:23:20.808Z,42.57
2018-01-08T22:25:48.474Z,47.03
2018-01-08T22:28:16.036Z,38.67
2018-01-08T22:30:43.628Z,40.87
2018-01-08T22:33:11.953Z,40.90
2018-01-08T22:35:39.580Z,41.27
2018-01-08T22:38:07.177Z,36.87
2018-01-08T22:40:34.743Z,37.50
2018-01-08T22:43:02.346Z,48.53
2018-01-08T22:45:30.716Z,45.23
2018-01-08T22:47:58.338Z,45.57
2018-01-08T22:50:25.956Z,47.90
2018-01-08T22:52:53.555Z,48.23
2018-01-08T22:55:21.154Z,36.97
2018-01-08T22:57:49.571Z,46.60
2018-01-08T23:00:17.163Z,38.07
2018-01-08T23:02:44.741Z,39.97
2018-01-08T23:05:12.886Z,45.27
2018-01-08T23:07:40.487Z,45.83
2018-01-08T23:10:08.822Z,50.33
2018-01-08T23:12:36.433Z,42.53
2018-01-08T23:15:04.049Z,38.83
2018-01-08T23:17:31.638Z,35.73
2018-01-08T23:19:59.173Z,37.50
2018-01-08T23:22:26.763Z,41.83
2018-01-08T23:24:54.360Z,38.00
2018-01-08T23:27:21.958Z,46.40
2018-01-08T23:29:49.552Z,37.83
2018-01-08T23:32:17.857Z,38.00
2018-01-08T23:34:45.400Z,37.23
2018-01-08T23:37:13.694Z,36.00
2018-01-08T23:39:41.252Z,37.00
2018-01-08T23:42:08.865Z,43.07
2018-01-08T23:44:36.422Z,37.20
2018-01-08T23:47:03.984Z,38.87
2018-01-08T23:49:31.513Z,46.80
2018-01-08T23:51:59.071Z,45.10
2018-01-08T23:54:26.616Z,39.87
2018-01-08T23:56:54.153Z,30.40
2018-01-08T23:59:21.694Z,37.77
